sensor_id;sensor_type;location;lat;lon;timestamp;P1;durP1;ratioP1;P2;durP2;ratioP2
77542;SDS011;66669;52.100;5.104;2023-02-25T00:01:21;4.90;;;1.30;;
77542;SDS011;66669;52.100;5.104;2023-02-25T00:03:51;3.97;;;1.13;;
77542;SDS011;66669;52.100;5.104;2023-02-25T00:06:18;4.57;;;1.10;;
77542;SDS011;66669;52.100;5.104;2023-02-25T00:08:46;5.63;;;1.10;;
77542;SDS011;66669;52.100;5.104;2023-02-25T00:11:13;4.70;;;0.98;;
77542;SDS011;66669;52.100;5.104;2023-02-25T00:13:40;4.93;;;1.20;;
77542;SDS011;66669;52.100;5.104;2023-02-25T00:16:07;5.40;;;1.07;;
77542;SDS011;66669;52.100;5.104;2023-02-25T00:18:33;6.40;;;1.10;;
77542;SDS011;66669;52.100;5.104;2023-02-25T00:20:59;5.47;;;1.40;;
77542;SDS011;66669;52.100;5.104;2023-02-25T00:23:29;4.28;;;1.00;;
77542;SDS011;66669;52.100;5.104;2023-02-25T00:25:58;5.05;;;1.20;;
77542;SDS011;66669;52.100;5.104;2023-02-25T00:28:25;5.47;;;1.13;;
77542;SDS011;66669;52.100;5.104;2023-02-25T00:30:51;5.88;;;1.20;;
77542;SDS011;66669;52.100;5.104;2023-02-25T00:33:17;5.40;;;1.17;;
77542;SDS011;66669;52.100;5.104;2023-02-25T00:35:42;3.83;;;0.80;;
77542;SDS011;66669;52.100;5.104;2023-02-25T00:38:08;2.45;;;0.90;;
77542;SDS011;66669;52.100;5.104;2023-02-25T00:40:36;3.45;;;1.00;;
77542;SDS011;66669;52.100;5.104;2023-02-25T00:43:02;3.90;;;0.80;;
77542;SDS011;66669;52.100;5.104;2023-02-25T00:45:28;5.22;;;0.88;;
77542;SDS011;66669;52.100;5.104;2023-02-25T00:47:53;4.80;;;0.70;;
77542;SDS011;66669;52.100;5.104;2023-02-25T00:50:19;3.15;;;1.13;;
77542;SDS011;66669;52.100;5.104;2023-02-25T00:52:44;3.83;;;1.00;;
77542;SDS011;66669;52.100;5.104;2023-02-25T00:55:10;3.58;;;0.70;;
77542;SDS011;66669;52.100;5.104;2023-02-25T00:57:36;3.60;;;1.05;;
77542;SDS011;66669;52.100;5.104;2023-02-25T01:00:03;4.97;;;1.10;;
77542;SDS011;66669;52.100;5.104;2023-02-25T01:02:34;5.25;;;0.80;;
77542;SDS011;66669;52.100;5.104;2023-02-25T01:05:00;5.72;;;1.20;;
77542;SDS011;66669;52.100;5.104;2023-02-25T01:07:25;6.35;;;1.20;;
77542;SDS011;66669;52.100;5.104;2023-02-25T01:09:53;5.00;;;1.10;;
77542;SDS011;66669;52.100;5.104;2023-02-25T01:12:19;4.38;;;0.90;;
77542;SDS011;66669;52.100;5.104;2023-02-25T01:14:45;3.17;;;0.90;;
77542;SDS011;66669;52.100;5.104;2023-02-25T01:17:10;5.88;;;1.42;;
77542;SDS011;66669;52.100;5.104;2023-02-25T01:19:35;3.90;;;1.02;;
77542;SDS011;66669;52.100;5.104;2023-02-25T01:22:01;5.57;;;1.30;;
77542;SDS011;66669;52.100;5.104;2023-02-25T01:24:28;4.18;;;1.00;;
77542;SDS011;66669;52.100;5.104;2023-02-25T01:26:56;4.93;;;1.08;;
77542;SDS011;66669;52.100;5.104;2023-02-25T01:29:26;3.22;;;0.95;;
77542;SDS011;66669;52.100;5.104;2023-02-25T01:34:20;4.47;;;1.10;;
77542;SDS011;66669;52.100;5.104;2023-02-25T01:36:45;6.32;;;1.40;;
77542;SDS011;66669;52.100;5.104;2023-02-25T01:39:11;4.55;;;1.00;;
77542;SDS011;66669;52.100;5.104;2023-02-25T01:41:38;6.00;;;1.50;;
77542;SDS011;66669;52.100;5.104;2023-02-25T01:44:14;5.28;;;1.20;;
77542;SDS011;66669;52.100;5.104;2023-02-25T01:46:42;5.68;;;1.40;;
77542;SDS011;66669;52.100;5.104;2023-02-25T01:52:14;8.20;;;1.50;;
77542;SDS011;66669;52.100;5.104;2023-02-25T01:54:46;7.20;;;1.73;;
77542;SDS011;66669;52.100;5.104;2023-02-25T01:57:16;4.97;;;1.10;;
77542;SDS011;66669;52.100;5.104;2023-02-25T01:59:42;6.70;;;1.80;;
77542;SDS011;66669;52.100;5.104;2023-02-25T02:02:10;6.88;;;1.70;;
77542;SDS011;66669;52.100;5.104;2023-02-25T02:04:38;6.38;;;1.38;;
77542;SDS011;66669;52.100;5.104;2023-02-25T02:07:06;5.88;;;1.55;;
77542;SDS011;66669;52.100;5.104;2023-02-25T02:09:31;9.02;;;1.65;;
77542;SDS011;66669;52.100;5.104;2023-02-25T02:12:00;5.32;;;1.45;;
77542;SDS011;66669;52.100;5.104;2023-02-25T02:14:30;7.63;;;1.70;;
77542;SDS011;66669;52.100;5.104;2023-02-25T02:35:46;5.55;;;1.60;;
77542;SDS011;66669;52.100;5.104;2023-02-25T02:38:40;7.90;;;1.70;;
77542;SDS011;66669;52.100;5.104;2023-02-25T02:41:22;6.22;;;1.20;;
77542;SDS011;66669;52.100;5.104;2023-02-25T02:46:39;10.48;;;1.85;;
77542;SDS011;66669;52.100;5.104;2023-02-25T02:49:58;7.18;;;1.90;;
77542;SDS011;66669;52.100;5.104;2023-02-25T02:52:09;9.18;;;1.83;;
77542;SDS011;66669;52.100;5.104;2023-02-25T02:54:40;6.50;;;1.60;;
77542;SDS011;66669;52.100;5.104;2023-02-25T02:57:14;8.45;;;1.90;;
77542;SDS011;66669;52.100;5.104;2023-02-25T02:59:43;8.95;;;2.17;;
77542;SDS011;66669;52.100;5.104;2023-02-25T03:02:17;7.30;;;1.80;;
77542;SDS011;66669;52.100;5.104;2023-02-25T03:04:58;6.55;;;1.70;;
77542;SDS011;66669;52.100;5.104;2023-02-25T03:07:27;7.57;;;1.85;;
77542;SDS011;66669;52.100;5.104;2023-02-25T03:09:59;10.35;;;2.13;;
77542;SDS011;66669;52.100;5.104;2023-02-25T03:12:28;9.02;;;2.20;;
77542;SDS011;66669;52.100;5.104;2023-02-25T03:14:54;9.43;;;2.35;;
77542;SDS011;66669;52.100;5.104;2023-02-25T03:17:24;8.32;;;1.95;;
77542;SDS011;66669;52.100;5.104;2023-02-25T03:19:56;6.28;;;1.80;;
77542;SDS011;66669;52.100;5.104;2023-02-25T03:22:32;8.63;;;1.75;;
77542;SDS011;66669;52.100;5.104;2023-02-25T03:25:13;8.80;;;1.95;;
77542;SDS011;66669;52.100;5.104;2023-02-25T03:27:56;13.00;;;2.60;;
77542;SDS011;66669;52.100;5.104;2023-02-25T03:35:28;8.70;;;1.85;;
77542;SDS011;66669;52.100;5.104;2023-02-25T03:38:00;10.80;;;2.33;;
77542;SDS011;66669;52.100;5.104;2023-02-25T03:40:28;7.13;;;1.88;;
77542;SDS011;66669;52.100;5.104;2023-02-25T03:42:59;9.02;;;2.22;;
77542;SDS011;66669;52.100;5.104;2023-02-25T03:45:31;8.20;;;2.10;;
77542;SDS011;66669;52.100;5.104;2023-02-25T03:47:59;8.40;;;1.88;;
77542;SDS011;66669;52.100;5.104;2023-02-25T03:50:28;8.07;;;1.80;;
77542;SDS011;66669;52.100;5.104;2023-02-25T03:52:57;9.80;;;2.40;;
77542;SDS011;66669;52.100;5.104;2023-02-25T03:55:23;9.85;;;2.00;;
77542;SDS011;66669;52.100;5.104;2023-02-25T03:57:49;9.25;;;2.22;;
77542;SDS011;66669;52.100;5.104;2023-02-25T04:02:48;8.30;;;1.83;;
77542;SDS011;66669;52.100;5.104;2023-02-25T04:05:15;8.27;;;1.92;;
77542;SDS011;66669;52.100;5.104;2023-02-25T04:07:41;8.73;;;1.80;;
77542;SDS011;66669;52.100;5.104;2023-02-25T04:10:08;8.02;;;1.85;;
77542;SDS011;66669;52.100;5.104;2023-02-25T04:12:35;10.13;;;1.90;;
77542;SDS011;66669;52.100;5.104;2023-02-25T04:15:00;8.32;;;2.28;;
77542;SDS011;66669;52.100;5.104;2023-02-25T04:17:26;9.30;;;2.13;;
77542;SDS011;66669;52.100;5.104;2023-02-25T04:19:51;7.72;;;1.83;;
77542;SDS011;66669;52.100;5.104;2023-02-25T04:22:17;10.57;;;2.00;;
77542;SDS011;66669;52.100;5.104;2023-02-25T04:24:42;8.77;;;2.00;;
77542;SDS011;66669;52.100;5.104;2023-02-25T04:27:07;10.00;;;2.10;;
77542;SDS011;66669;52.100;5.104;2023-02-25T04:29:33;10.77;;;2.35;;
77542;SDS011;66669;52.100;5.104;2023-02-25T04:31:58;11.35;;;2.30;;
77542;SDS011;66669;52.100;5.104;2023-02-25T04:34:24;7.72;;;1.75;;
77542;SDS011;66669;52.100;5.104;2023-02-25T04:36:49;8.30;;;1.92;;
77542;SDS011;66669;52.100;5.104;2023-02-25T04:39:15;6.47;;;1.90;;
77542;SDS011;66669;52.100;5.104;2023-02-25T04:41:42;6.82;;;1.80;;
77542;SDS011;66669;52.100;5.104;2023-02-25T04:44:08;9.00;;;2.30;;
77542;SDS011;66669;52.100;5.104;2023-02-25T04:46:35;11.63;;;2.00;;
77542;SDS011;66669;52.100;5.104;2023-02-25T04:51:28;7.78;;;1.60;;
77542;SDS011;66669;52.100;5.104;2023-02-25T04:53:54;7.93;;;2.00;;
77542;SDS011;66669;52.100;5.104;2023-02-25T04:56:20;9.50;;;2.45;;
77542;SDS011;66669;52.100;5.104;2023-02-25T04:58:45;7.47;;;1.58;;
77542;SDS011;66669;52.100;5.104;2023-02-25T05:01:11;7.70;;;1.83;;
77542;SDS011;66669;52.100;5.104;2023-02-25T05:03:37;6.85;;;1.50;;
77542;SDS011;66669;52.100;5.104;2023-02-25T05:06:04;7.97;;;1.73;;
77542;SDS011;66669;52.100;5.104;2023-02-25T05:08:30;9.52;;;1.70;;
77542;SDS011;66669;52.100;5.104;2023-02-25T05:10:57;7.00;;;1.58;;
77542;SDS011;66669;52.100;5.104;2023-02-25T05:13:23;7.57;;;1.85;;
77542;SDS011;66669;52.100;5.104;2023-02-25T05:15:48;7.22;;;1.55;;
77542;SDS011;66669;52.100;5.104;2023-02-25T05:18:14;8.65;;;1.48;;
77542;SDS011;66669;52.100;5.104;2023-02-25T05:20:40;7.88;;;1.65;;
77542;SDS011;66669;52.100;5.104;2023-02-25T05:23:07;6.47;;;1.50;;
77542;SDS011;66669;52.100;5.104;2023-02-25T05:25:33;7.53;;;1.58;;
77542;SDS011;66669;52.100;5.104;2023-02-25T05:27:59;6.82;;;1.48;;
77542;SDS011;66669;52.100;5.104;2023-02-25T05:30:25;8.48;;;2.17;;
77542;SDS011;66669;52.100;5.104;2023-02-25T05:32:50;6.85;;;1.90;;
77542;SDS011;66669;52.100;5.104;2023-02-25T05:35:16;8.85;;;1.63;;
77542;SDS011;66669;52.100;5.104;2023-02-25T05:37:41;8.30;;;1.95;;
77542;SDS011;66669;52.100;5.104;2023-02-25T05:40:07;7.38;;;1.88;;
77542;SDS011;66669;52.100;5.104;2023-02-25T05:42:38;6.53;;;1.38;;
77542;SDS011;66669;52.100;5.104;2023-02-25T05:45:04;5.55;;;1.60;;
77542;SDS011;66669;52.100;5.104;2023-02-25T05:47:31;8.23;;;1.60;;
77542;SDS011;66669;52.100;5.104;2023-02-25T05:49:56;7.25;;;1.85;;
77542;SDS011;66669;52.100;5.104;2023-02-25T05:52:21;8.23;;;1.95;;
77542;SDS011;66669;52.100;5.104;2023-02-25T05:54:47;6.72;;;1.77;;
77542;SDS011;66669;52.100;5.104;2023-02-25T05:57:12;6.93;;;1.55;;
77542;SDS011;66669;52.100;5.104;2023-02-25T05:59:37;8.35;;;1.75;;
77542;SDS011;66669;52.100;5.104;2023-02-25T06:02:03;8.85;;;1.88;;
77542;SDS011;66669;52.100;5.104;2023-02-25T06:04:28;8.55;;;2.15;;
77542;SDS011;66669;52.100;5.104;2023-02-25T06:06:54;7.45;;;2.08;;
77542;SDS011;66669;52.100;5.104;2023-02-25T06:09:20;9.30;;;2.13;;
77542;SDS011;66669;52.100;5.104;2023-02-25T06:11:46;6.55;;;1.58;;
77542;SDS011;66669;52.100;5.104;2023-02-25T06:14:13;6.28;;;1.50;;
77542;SDS011;66669;52.100;5.104;2023-02-25T06:16:39;8.68;;;2.00;;
77542;SDS011;66669;52.100;5.104;2023-02-25T06:19:05;7.05;;;1.70;;
77542;SDS011;66669;52.100;5.104;2023-02-25T06:21:32;9.55;;;1.65;;
77542;SDS011;66669;52.100;5.104;2023-02-25T06:23:59;7.57;;;1.58;;
77542;SDS011;66669;52.100;5.104;2023-02-25T06:26:25;9.20;;;2.35;;
77542;SDS011;66669;52.100;5.104;2023-02-25T06:28:51;5.80;;;1.73;;
77542;SDS011;66669;52.100;5.104;2023-02-25T06:31:17;8.35;;;1.88;;
77542;SDS011;66669;52.100;5.104;2023-02-25T06:33:43;6.25;;;1.98;;
77542;SDS011;66669;52.100;5.104;2023-02-25T06:36:10;6.53;;;1.65;;
77542;SDS011;66669;52.100;5.104;2023-02-25T06:38:37;7.05;;;1.65;;
77542;SDS011;66669;52.100;5.104;2023-02-25T06:41:07;10.07;;;2.20;;
77542;SDS011;66669;52.100;5.104;2023-02-25T06:43:34;9.73;;;1.83;;
77542;SDS011;66669;52.100;5.104;2023-02-25T06:46:02;8.45;;;2.10;;
77542;SDS011;66669;52.100;5.104;2023-02-25T06:48:29;8.38;;;1.90;;
77542;SDS011;66669;52.100;5.104;2023-02-25T06:50:54;9.48;;;2.17;;
77542;SDS011;66669;52.100;5.104;2023-02-25T06:53:20;9.85;;;2.10;;
77542;SDS011;66669;52.100;5.104;2023-02-25T06:55:46;7.45;;;1.98;;
77542;SDS011;66669;52.100;5.104;2023-02-25T06:58:12;8.65;;;2.00;;
77542;SDS011;66669;52.100;5.104;2023-02-25T07:00:37;8.70;;;2.40;;
77542;SDS011;66669;52.100;5.104;2023-02-25T07:03:03;10.55;;;2.10;;
77542;SDS011;66669;52.100;5.104;2023-02-25T07:05:29;7.82;;;1.90;;
77542;SDS011;66669;52.100;5.104;2023-02-25T07:07:54;8.20;;;1.80;;
77542;SDS011;66669;52.100;5.104;2023-02-25T07:10:20;10.23;;;2.38;;
77542;SDS011;66669;52.100;5.104;2023-02-25T07:12:45;7.15;;;1.88;;
77542;SDS011;66669;52.100;5.104;2023-02-25T07:15:10;7.75;;;1.95;;
77542;SDS011;66669;52.100;5.104;2023-02-25T07:17:36;8.88;;;1.83;;
77542;SDS011;66669;52.100;5.104;2023-02-25T07:20:01;8.02;;;1.70;;
77542;SDS011;66669;52.100;5.104;2023-02-25T07:22:27;9.75;;;1.95;;
77542;SDS011;66669;52.100;5.104;2023-02-25T07:24:52;11.05;;;2.00;;
77542;SDS011;66669;52.100;5.104;2023-02-25T07:27:17;9.10;;;1.88;;
77542;SDS011;66669;52.100;5.104;2023-02-25T07:29:43;6.57;;;1.75;;
77542;SDS011;66669;52.100;5.104;2023-02-25T07:32:08;13.00;;;2.22;;
77542;SDS011;66669;52.100;5.104;2023-02-25T07:34:34;9.60;;;2.53;;
77542;SDS011;66669;52.100;5.104;2023-02-25T07:37:00;9.05;;;1.90;;
77542;SDS011;66669;52.100;5.104;2023-02-25T07:39:26;8.50;;;2.00;;
77542;SDS011;66669;52.100;5.104;2023-02-25T07:41:51;10.43;;;2.13;;
77542;SDS011;66669;52.100;5.104;2023-02-25T07:44:16;8.70;;;2.03;;
77542;SDS011;66669;52.100;5.104;2023-02-25T07:46:42;6.97;;;1.95;;
77542;SDS011;66669;52.100;5.104;2023-02-25T07:49:07;9.05;;;2.40;;
77542;SDS011;66669;52.100;5.104;2023-02-25T07:51:32;8.00;;;1.80;;
77542;SDS011;66669;52.100;5.104;2023-02-25T07:53:58;9.23;;;2.50;;
77542;SDS011;66669;52.100;5.104;2023-02-25T07:56:25;8.32;;;2.05;;
77542;SDS011;66669;52.100;5.104;2023-02-25T07:58:52;8.80;;;1.80;;
77542;SDS011;66669;52.100;5.104;2023-02-25T08:03:47;8.32;;;2.30;;
77542;SDS011;66669;52.100;5.104;2023-02-25T08:06:13;7.72;;;1.90;;
77542;SDS011;66669;52.100;5.104;2023-02-25T08:08:39;10.45;;;2.30;;
77542;SDS011;66669;52.100;5.104;2023-02-25T08:11:08;8.55;;;1.85;;
77542;SDS011;66669;52.100;5.104;2023-02-25T08:13:36;7.55;;;1.98;;
77542;SDS011;66669;52.100;5.104;2023-02-25T08:16:05;8.63;;;1.95;;
77542;SDS011;66669;52.100;5.104;2023-02-25T08:18:33;5.78;;;1.30;;
77542;SDS011;66669;52.100;5.104;2023-02-25T08:20:59;6.28;;;1.75;;
77542;SDS011;66669;52.100;5.104;2023-02-25T08:23:25;5.22;;;1.40;;
77542;SDS011;66669;52.100;5.104;2023-02-25T08:25:54;10.68;;;1.80;;
77542;SDS011;66669;52.100;5.104;2023-02-25T08:28:20;8.18;;;1.77;;
77542;SDS011;66669;52.100;5.104;2023-02-25T08:30:47;8.27;;;2.03;;
77542;SDS011;66669;52.100;5.104;2023-02-25T08:33:13;6.78;;;1.70;;
77542;SDS011;66669;52.100;5.104;2023-02-25T08:35:39;8.20;;;1.90;;
77542;SDS011;66669;52.100;5.104;2023-02-25T08:38:04;7.97;;;1.67;;
77542;SDS011;66669;52.100;5.104;2023-02-25T08:40:30;8.35;;;1.98;;
77542;SDS011;66669;52.100;5.104;2023-02-25T08:42:55;8.30;;;2.00;;
77542;SDS011;66669;52.100;5.104;2023-02-25T08:45:21;7.38;;;1.52;;
77542;SDS011;66669;52.100;5.104;2023-02-25T08:47:47;5.85;;;1.40;;
77542;SDS011;66669;52.100;5.104;2023-02-25T08:50:12;6.13;;;1.30;;
77542;SDS011;66669;52.100;5.104;2023-02-25T08:52:38;4.63;;;1.10;;
77542;SDS011;66669;52.100;5.104;2023-02-25T08:55:03;3.63;;;0.80;;
77542;SDS011;66669;52.100;5.104;2023-02-25T08:57:29;4.03;;;0.80;;
77542;SDS011;66669;52.100;5.104;2023-02-25T08:59:55;8.10;;;1.30;;
77542;SDS011;66669;52.100;5.104;2023-02-25T09:02:21;3.20;;;0.73;;
77542;SDS011;66669;52.100;5.104;2023-02-25T09:04:48;4.72;;;0.98;;
77542;SDS011;66669;52.100;5.104;2023-02-25T09:07:13;5.63;;;1.10;;
77542;SDS011;66669;52.100;5.104;2023-02-25T09:09:40;4.28;;;1.10;;
77542;SDS011;66669;52.100;5.104;2023-02-25T09:12:06;4.63;;;0.93;;
77542;SDS011;66669;52.100;5.104;2023-02-25T09:14:33;10.40;;;1.10;;
77542;SDS011;66669;52.100;5.104;2023-02-25T09:17:00;5.05;;;1.20;;
77542;SDS011;66669;52.100;5.104;2023-02-25T09:19:26;6.05;;;1.05;;
77542;SDS011;66669;52.100;5.104;2023-02-25T09:21:52;7.28;;;1.65;;
77542;SDS011;66669;52.100;5.104;2023-02-25T09:24:17;4.47;;;0.93;;
77542;SDS011;66669;52.100;5.104;2023-02-25T09:26:43;6.78;;;1.17;;
77542;SDS011;66669;52.100;5.104;2023-02-25T09:29:09;2.88;;;0.80;;
77542;SDS011;66669;52.100;5.104;2023-02-25T09:31:35;3.67;;;0.98;;
77542;SDS011;66669;52.100;5.104;2023-02-25T09:34:01;7.45;;;1.00;;
77542;SDS011;66669;52.100;5.104;2023-02-25T09:36:30;3.60;;;1.10;;
77542;SDS011;66669;52.100;5.104;2023-02-25T09:38:58;3.42;;;1.00;;
77542;SDS011;66669;52.100;5.104;2023-02-25T09:44:11;5.75;;;1.05;;
77542;SDS011;66669;52.100;5.104;2023-02-25T09:46:41;7.20;;;1.05;;
77542;SDS011;66669;52.100;5.104;2023-02-25T09:49:27;5.30;;;1.27;;
77542;SDS011;66669;52.100;5.104;2023-02-25T09:52:20;5.90;;;0.80;;
77542;SDS011;66669;52.100;5.104;2023-02-25T09:54:58;4.60;;;1.25;;
77542;SDS011;66669;52.100;5.104;2023-02-25T09:57:30;3.00;;;0.68;;
77542;SDS011;66669;52.100;5.104;2023-02-25T10:00:01;3.70;;;0.73;;
77542;SDS011;66669;52.100;5.104;2023-02-25T10:07:54;4.05;;;0.63;;
77542;SDS011;66669;52.100;5.104;2023-02-25T10:15:44;4.82;;;0.65;;
77542;SDS011;66669;52.100;5.104;2023-02-25T10:18:13;4.70;;;0.70;;
77542;SDS011;66669;52.100;5.104;2023-02-25T10:20:56;1.98;;;0.50;;
77542;SDS011;66669;52.100;5.104;2023-02-25T10:26:23;4.20;;;0.63;;
77542;SDS011;66669;52.100;5.104;2023-02-25T10:28:54;4.55;;;0.52;;
77542;SDS011;66669;52.100;5.104;2023-02-25T10:31:24;2.08;;;0.70;;
77542;SDS011;66669;52.100;5.104;2023-02-25T10:33:51;2.00;;;0.45;;
77542;SDS011;66669;52.100;5.104;2023-02-25T10:36:30;1.73;;;0.40;;
77542;SDS011;66669;52.100;5.104;2023-02-25T10:39:00;3.97;;;0.65;;
77542;SDS011;66669;52.100;5.104;2023-02-25T10:41:26;2.10;;;0.45;;
77542;SDS011;66669;52.100;5.104;2023-02-25T10:43:52;1.98;;;0.50;;
77542;SDS011;66669;52.100;5.104;2023-02-25T10:48:56;2.42;;;0.80;;
77542;SDS011;66669;52.100;5.104;2023-02-25T10:51:24;3.47;;;1.15;;
77542;SDS011;66669;52.100;5.104;2023-02-25T10:56:20;3.65;;;0.82;;
77542;SDS011;66669;52.100;5.104;2023-02-25T10:59:49;2.30;;;0.93;;
77542;SDS011;66669;52.100;5.104;2023-02-25T11:01:52;4.45;;;0.75;;
77542;SDS011;66669;52.100;5.104;2023-02-25T11:04:19;3.45;;;0.68;;
77542;SDS011;66669;52.100;5.104;2023-02-25T11:06:49;2.80;;;0.70;;
77542;SDS011;66669;52.100;5.104;2023-02-25T11:11:52;4.70;;;0.90;;
77542;SDS011;66669;52.100;5.104;2023-02-25T11:14:33;3.03;;;0.60;;
77542;SDS011;66669;52.100;5.104;2023-02-25T11:22:23;1.35;;;0.50;;
77542;SDS011;66669;52.100;5.104;2023-02-25T11:24:57;1.38;;;0.40;;
77542;SDS011;66669;52.100;5.104;2023-02-25T11:27:35;1.65;;;0.30;;
77542;SDS011;66669;52.100;5.104;2023-02-25T11:30:07;3.85;;;0.80;;
77542;SDS011;66669;52.100;5.104;2023-02-25T11:32:44;1.88;;;0.38;;
77542;SDS011;66669;52.100;5.104;2023-02-25T11:35:17;1.45;;;0.50;;
77542;SDS011;66669;52.100;5.104;2023-02-25T11:37:45;2.90;;;0.70;;
77542;SDS011;66669;52.100;5.104;2023-02-25T11:45:25;3.90;;;0.77;;
77542;SDS011;66669;52.100;5.104;2023-02-25T11:47:53;2.35;;;0.60;;
77542;SDS011;66669;52.100;5.104;2023-02-25T11:53:15;3.05;;;0.90;;
77542;SDS011;66669;52.100;5.104;2023-02-25T12:01:17;3.95;;;0.63;;
77542;SDS011;66669;52.100;5.104;2023-02-25T12:09:19;3.45;;;0.90;;
77542;SDS011;66669;52.100;5.104;2023-02-25T12:17:58;2.22;;;0.60;;
77542;SDS011;66669;52.100;5.104;2023-02-25T12:32:53;3.80;;;0.80;;
77542;SDS011;66669;52.100;5.104;2023-02-25T12:49:44;5.47;;;1.15;;
77542;SDS011;66669;52.100;5.104;2023-02-25T12:52:19;4.88;;;1.13;;
77542;SDS011;66669;52.100;5.104;2023-02-25T13:00:35;5.50;;;0.93;;
77542;SDS011;66669;52.100;5.104;2023-02-25T13:05:58;4.88;;;1.00;;
77542;SDS011;66669;52.100;5.104;2023-02-25T13:22:42;2.53;;;0.90;;
77542;SDS011;66669;52.100;5.104;2023-02-25T13:28:23;2.78;;;0.88;;
77542;SDS011;66669;52.100;5.104;2023-02-25T13:33:47;4.68;;;1.33;;
77542;SDS011;66669;52.100;5.104;2023-02-25T13:36:49;8.23;;;1.10;;
77542;SDS011;66669;52.100;5.104;2023-02-25T13:59:00;4.78;;;0.85;;
77542;SDS011;66669;52.100;5.104;2023-02-25T14:01:41;4.82;;;1.10;;
77542;SDS011;66669;52.100;5.104;2023-02-25T14:10:00;5.18;;;1.10;;
77542;SDS011;66669;52.100;5.104;2023-02-25T14:15:39;5.90;;;1.20;;
77542;SDS011;66669;52.100;5.104;2023-02-25T14:18:32;5.45;;;1.10;;
77542;SDS011;66669;52.100;5.104;2023-02-25T14:27:25;2.47;;;0.80;;
77542;SDS011;66669;52.100;5.104;2023-02-25T14:30:10;3.40;;;0.85;;
77542;SDS011;66669;52.100;5.104;2023-02-25T14:39:04;3.65;;;0.80;;
77542;SDS011;66669;52.100;5.104;2023-02-25T14:44:33;4.72;;;1.00;;
77542;SDS011;66669;52.100;5.104;2023-02-25T14:47:10;4.93;;;1.17;;
77542;SDS011;66669;52.100;5.104;2023-02-25T14:49:44;3.53;;;0.70;;
77542;SDS011;66669;52.100;5.104;2023-02-25T14:52:38;4.53;;;1.02;;
77542;SDS011;66669;52.100;5.104;2023-02-25T14:58:06;4.13;;;0.90;;
77542;SDS011;66669;52.100;5.104;2023-02-25T15:22:23;3.90;;;0.80;;
77542;SDS011;66669;52.100;5.104;2023-02-25T15:27:51;6.13;;;0.93;;
77542;SDS011;66669;52.100;5.104;2023-02-25T15:35:21;4.60;;;0.90;;
77542;SDS011;66669;52.100;5.104;2023-02-25T15:38:11;3.88;;;1.15;;
77542;SDS011;66669;52.100;5.104;2023-02-25T15:40:50;4.00;;;0.95;;
77542;SDS011;66669;52.100;5.104;2023-02-25T15:45:44;4.68;;;1.10;;
77542;SDS011;66669;52.100;5.104;2023-02-25T16:05:58;3.92;;;0.93;;
77542;SDS011;66669;52.100;5.104;2023-02-25T16:08:27;3.67;;;0.70;;
77542;SDS011;66669;52.100;5.104;2023-02-25T16:10:59;4.85;;;0.75;;
77542;SDS011;66669;52.100;5.104;2023-02-25T16:13:28;2.88;;;0.80;;
77542;SDS011;66669;52.100;5.104;2023-02-25T16:15:55;3.83;;;0.73;;
77542;SDS011;66669;52.100;5.104;2023-02-25T16:20:51;3.58;;;0.80;;
77542;SDS011;66669;52.100;5.104;2023-02-25T16:23:19;3.25;;;0.90;;
77542;SDS011;66669;52.100;5.104;2023-02-25T16:26:21;2.65;;;0.80;;
77542;SDS011;66669;52.100;5.104;2023-02-25T16:28:56;4.35;;;0.73;;
77542;SDS011;66669;52.100;5.104;2023-02-25T16:32:25;4.88;;;0.80;;
77542;SDS011;66669;52.100;5.104;2023-02-25T16:34:24;3.95;;;0.65;;
77542;SDS011;66669;52.100;5.104;2023-02-25T16:39:50;4.72;;;0.90;;
77542;SDS011;66669;52.100;5.104;2023-02-25T16:42:16;3.85;;;0.88;;
77542;SDS011;66669;52.100;5.104;2023-02-25T16:44:43;3.70;;;1.10;;
77542;SDS011;66669;52.100;5.104;2023-02-25T16:47:29;3.53;;;0.70;;
77542;SDS011;66669;52.100;5.104;2023-02-25T16:49:58;2.72;;;0.75;;
77542;SDS011;66669;52.100;5.104;2023-02-25T16:52:28;2.97;;;0.70;;
77542;SDS011;66669;52.100;5.104;2023-02-25T16:54:57;3.13;;;0.60;;
77542;SDS011;66669;52.100;5.104;2023-02-25T16:57:26;4.35;;;0.90;;
77542;SDS011;66669;52.100;5.104;2023-02-25T17:00:03;3.05;;;0.80;;
77542;SDS011;66669;52.100;5.104;2023-02-25T17:02:29;2.47;;;0.68;;
77542;SDS011;66669;52.100;5.104;2023-02-25T17:04:55;4.10;;;0.63;;
77542;SDS011;66669;52.100;5.104;2023-02-25T17:12:34;3.88;;;0.77;;
77542;SDS011;66669;52.100;5.104;2023-02-25T17:15:06;3.03;;;0.65;;
77542;SDS011;66669;52.100;5.104;2023-02-25T17:17:58;4.30;;;0.82;;
77542;SDS011;66669;52.100;5.104;2023-02-25T17:20:27;2.55;;;0.45;;
77542;SDS011;66669;52.100;5.104;2023-02-25T17:22:53;2.67;;;0.63;;
77542;SDS011;66669;52.100;5.104;2023-02-25T17:25:20;1.30;;;0.50;;
77542;SDS011;66669;52.100;5.104;2023-02-25T17:27:51;2.58;;;0.70;;
77542;SDS011;66669;52.100;5.104;2023-02-25T17:35:54;2.08;;;0.60;;
77542;SDS011;66669;52.100;5.104;2023-02-25T17:38:23;1.98;;;0.60;;
77542;SDS011;66669;52.100;5.104;2023-02-25T17:40:49;2.05;;;0.40;;
77542;SDS011;66669;52.100;5.104;2023-02-25T17:45:48;1.95;;;0.63;;
77542;SDS011;66669;52.100;5.104;2023-02-25T17:48:18;3.20;;;0.60;;
77542;SDS011;66669;52.100;5.104;2023-02-25T17:50:50;3.00;;;0.65;;
77542;SDS011;66669;52.100;5.104;2023-02-25T17:53:23;2.42;;;0.73;;
77542;SDS011;66669;52.100;5.104;2023-02-25T17:55:54;2.83;;;0.70;;
77542;SDS011;66669;52.100;5.104;2023-02-25T17:58:23;3.58;;;0.70;;
77542;SDS011;66669;52.100;5.104;2023-02-25T18:00:58;3.55;;;0.70;;
77542;SDS011;66669;52.100;5.104;2023-02-25T18:03:30;2.60;;;0.93;;
77542;SDS011;66669;52.100;5.104;2023-02-25T18:06:24;2.78;;;0.70;;
77542;SDS011;66669;52.100;5.104;2023-02-25T18:08:51;3.63;;;0.88;;
77542;SDS011;66669;52.100;5.104;2023-02-25T18:11:24;4.10;;;0.73;;
77542;SDS011;66669;52.100;5.104;2023-02-25T18:13:53;2.97;;;0.80;;
77542;SDS011;66669;52.100;5.104;2023-02-25T18:16:28;2.05;;;0.70;;
77542;SDS011;66669;52.100;5.104;2023-02-25T18:18:54;3.20;;;0.70;;
77542;SDS011;66669;52.100;5.104;2023-02-25T18:21:20;2.72;;;0.73;;
77542;SDS011;66669;52.100;5.104;2023-02-25T18:23:46;2.92;;;0.77;;
77542;SDS011;66669;52.100;5.104;2023-02-25T18:26:18;2.28;;;0.95;;
77542;SDS011;66669;52.100;5.104;2023-02-25T18:28:48;4.32;;;0.70;;
77542;SDS011;66669;52.100;5.104;2023-02-25T18:31:15;3.17;;;0.93;;
77542;SDS011;66669;52.100;5.104;2023-02-25T18:33:43;3.13;;;1.10;;
77542;SDS011;66669;52.100;5.104;2023-02-25T18:36:10;3.70;;;1.30;;
77542;SDS011;66669;52.100;5.104;2023-02-25T18:38:44;2.65;;;0.90;;
77542;SDS011;66669;52.100;5.104;2023-02-25T18:41:10;1.63;;;0.82;;
77542;SDS011;66669;52.100;5.104;2023-02-25T18:43:36;2.00;;;0.70;;
77542;SDS011;66669;52.100;5.104;2023-02-25T18:46:05;2.25;;;0.90;;
77542;SDS011;66669;52.100;5.104;2023-02-25T18:48:31;2.33;;;0.70;;
77542;SDS011;66669;52.100;5.104;2023-02-25T18:50:56;3.65;;;1.05;;
77542;SDS011;66669;52.100;5.104;2023-02-25T18:53:23;2.88;;;0.93;;
77542;SDS011;66669;52.100;5.104;2023-02-25T18:55:50;2.50;;;0.82;;
77542;SDS011;66669;52.100;5.104;2023-02-25T18:58:17;3.75;;;1.30;;
77542;SDS011;66669;52.100;5.104;2023-02-25T19:00:44;3.38;;;1.15;;
77542;SDS011;66669;52.100;5.104;2023-02-25T19:03:26;2.65;;;0.90;;
77542;SDS011;66669;52.100;5.104;2023-02-25T19:05:54;3.42;;;1.10;;
77542;SDS011;66669;52.100;5.104;2023-02-25T19:08:20;2.25;;;0.80;;
77542;SDS011;66669;52.100;5.104;2023-02-25T19:10:45;2.75;;;0.88;;
77542;SDS011;66669;52.100;5.104;2023-02-25T19:13:16;3.13;;;0.90;;
77542;SDS011;66669;52.100;5.104;2023-02-25T19:15:53;3.25;;;1.10;;
77542;SDS011;66669;52.100;5.104;2023-02-25T19:18:19;2.20;;;0.90;;
77542;SDS011;66669;52.100;5.104;2023-02-25T19:20:45;2.25;;;1.10;;
77542;SDS011;66669;52.100;5.104;2023-02-25T19:23:11;3.40;;;1.00;;
77542;SDS011;66669;52.100;5.104;2023-02-25T19:25:37;3.92;;;1.20;;